Seago Piraeus — OXVD2 — position and weather

sailwx.info

Track history (hours):
 
Tides and Currents Weather Stations Pressure Air Temp Water Temp Dewpoint Dewpoint Depression Visibility Wind Speed Wind Dir Waves Ship Positions

Seago Piraeus

Last reported at 2018-Feb-24 17:00 UTC. Time now 2018-Feb-24 18:14 UTC.
Position N 37°18' E 012°24'.

Length 294 m; draft 14 m.

Type: Ship (hazmat cat A). MMSI: 219117000.

Wind from 160 at 12 knots

Barometer 1007.6 mb
Air temperature 13.5 ° C
Visibility: greater than 5.4 NM
Dewpoint 6.7 ° C
Water temperature 14.0 ° C

Date/timePositionNaut miles runAvg speedWind from/ knotsBaromVisibWave heightAir tempDewpointWater temp
2018-Feb-24 17:00N 37°18' E 012°24'23419.5 160 / 121007.6 5.4 13.5 6.714.0
2018-Feb-24 05:00N 37°30' E 007°30'23219.4 300 / 101007.0 5.4 12.2 9.714.0
2018-Feb-23 17:00N 36°54' E 002°42'7819.5 050 / 111006.010.8 14.5 5.715.0
2018-Feb-23 13:00N 36°42' E 001°06'6817.1 070 / 101006.010.8 12.5 8.514.0
2018-Feb-23 09:00N 36°30' W 000°18'7318.4 090 / 111006.027.0 13.512.614.0
2018-Feb-23 05:00N 36°18' W 001°48'16118.9 050 / 211003.810.8 14.211.015.0
2018-Feb-22 20:27N 36°01' W 005°07'921.4
2018-Feb-22 20:00N 35°60' W 005°18'1020.5
2018-Feb-22 19:30N 35°57' W 005°30'4819.3
2018-Feb-22 17:00N 35°54' W 006°30'7719.1 070 / 111007.510.8 17.5 8.115.0
2018-Feb-22 13:00N 36°18' W 008°00'12015.0 100 / 121008.727.0 17.0 8.215.0
2018-Feb-22 05:00N 37°42' W 009°48'6846.8 050 / 151008.510.8 13.5 3.514.0
2018-Feb-22 04:59N 37°47' W 009°52'918.4
2018-Feb-22 04:29N 37°56' W 009°55'918.6
2018-Feb-22 04:00N 38°05' W 009°57'3418.5
2018-Feb-22 02:12N 38°38' W 010°04'318.3
2018-Feb-22 02:01N 38°41' W 010°05'918.3
2018-Feb-22 01:30N 38°50' W 010°06'918.6
2018-Feb-22 01:00N 38°60' W 010°06'919.0
2018-Feb-22 00:30N 39°09' W 010°06'918.6
2018-Feb-22 00:00N 39°18' W 010°06'918.3
2018-Feb-21 23:30N 39°27' W 010°06'1018.3
2018-Feb-21 22:59N 39°37' W 010°07'918.4
2018-Feb-21 22:30N 39°46' W 010°07'918.3
2018-Feb-21 22:00N 39°55' W 010°07'918.5
2018-Feb-21 21:31N 40°04' W 010°06'917.8
2018-Feb-21 21:00N 40°12' W 010°00'5332.6 030 / 121011.110.8 13.5 8.512.0
2018-Feb-21 20:59N 40°14' W 010°06'2718.4
2018-Feb-21 19:31N 40°41' W 010°07'018.9
2018-Feb-21 19:30N 40°41' W 010°07'4317.2
2018-Feb-21 17:00N 41°24' W 010°06'7218.0 030 / 251012.0 5.4 13.1 6.212.0
2018-Feb-21 13:00N 42°36' W 010°06'7418.5 050 / 301016.210.8 11.5 7.413.0
2018-Feb-21 09:00N 43°48' W 009°42'7418.6 050 / 221020.510.8 12.0 2.912.0
2018-Feb-21 05:00N 44°54' W 008°54'15018.7 020 / 201023.2 5.4 10.2 4.112.0
2018-Feb-20 21:00N 47°06' W 007°12'7518.8 020 / 201027.110.8 10.0 5.611.0
2018-Feb-20 17:00N 48°12' W 006°18'4318.3 020 / 191026.4 5.4 10.0 4.410.0
2018-Feb-20 14:37N 48°50' W 005°47'4519.7
2018-Feb-20 12:19N 49°15' W 004°49'1419.8
2018-Feb-20 11:37N 49°22' W 004°30'3818.4
2018-Feb-20 09:34N 49°40' W 003°40'117.5
2018-Feb-20 09:30N 49°40' W 003°38'917.3
2018-Feb-20 08:59N 49°45' W 003°26'817.1
2018-Feb-20 08:30N 49°49' W 003°16'917.3
2018-Feb-20 08:01N 49°54' W 003°04'917.6
2018-Feb-20 07:30N 49°58' W 002°52'918.0
2018-Feb-20 07:00N 50°01' W 002°39'1019.1
2018-Feb-20 06:30N 50°03' W 002°24'1520.4
2018-Feb-20 05:45N 50°08' W 002°01'521.6
2018-Feb-20 05:30N 50°09' W 001°53'1121.8
2018-Feb-20 05:01N 50°12' W 001°37'5274.2
2018-Feb-20 05:00N 50°12' W 001°30'714.0 330 / 251018.7 5.4 10.0 6.8 9.0
2018-Feb-20 04:30N 50°16' W 001°21'1121.8
2018-Feb-20 04:00N 50°19' W 001°05'1121.2
2018-Feb-20 03:29N 50°22' W 000°48'1420.3
2018-Feb-20 02:49N 50°26' W 000°27'619.7
2018-Feb-20 02:30N 50°27' W 000°18'1019.1
2018-Feb-20 02:01N 50°30' W 000°04'918.5
2018-Feb-20 01:30N 50°32' E 000°10'918.0
2018-Feb-20 01:00N 50°35' E 000°24'917.5
2018-Feb-20 00:31N 50°38' E 000°36'917.6
2018-Feb-20 00:00N 50°44' E 000°47'917.9
2018-Feb-19 23:30N 50°49' E 000°59'918.9
2018-Feb-19 23:00N 50°55' E 001°11'1020.2
2018-Feb-19 22:31N 51°02' E 001°22'1122.0
2018-Feb-19 22:01N 51°08' E 001°36'1121.6
2018-Feb-19 21:31N 51°16' E 001°48'1019.2
2018-Feb-19 21:00N 51°24' E 001°58'816.9
2018-Feb-19 20:30N 51°21' E 002°11'917.9
2018-Feb-19 20:00N 51°22' E 002°26'917.3
2018-Feb-19 19:29N 51°23' E 002°40'612.9
2018-Feb-19 18:59N 51°25' E 002°50'816.6
2018-Feb-19 18:30N 51°25' E 003°02'816.9
2018-Feb-19 18:00N 51°25' E 003°16'816.9
2018-Feb-19 17:30N 51°25' E 003°29'612.7
2018-Feb-19 17:00N 51°26' E 003°39'714.0
2018-Feb-19 16:30N 51°21' E 003°47'612.9
2018-Feb-19 16:00N 51°23' E 003°57'4 7.2
2018-Feb-19 15:30N 51°25' E 004°02'5 9.8
2018-Feb-19 15:01N 51°23' E 004°09'4 8.2
2018-Feb-19 14:31N 51°21' E 004°15'1 1.6
2018-Feb-19 13:55N 51°21' E 004°16'0 0.0
2018-Feb-19 13:31N 51°21' E 004°16'0 0.0
2018-Feb-19 12:59N 51°21' E 004°16'0 0.0
2018-Feb-19 12:31N 51°21' E 004°16'0 0.0
2018-Feb-19 12:01N 51°21' E 004°16'0 0.0
2018-Feb-19 11:31N 51°21' E 004°16'0 0.0
2018-Feb-19 11:01N 51°21' E 004°16'0 0.0
2018-Feb-19 10:31N 51°21' E 004°16'0 0.0
2018-Feb-19 10:01N 51°21' E 004°16'0 0.0
2018-Feb-19 09:28N 51°21' E 004°16'0 0.0
2018-Feb-19 08:55N 51°21' E 004°16'0 0.0
2018-Feb-19 08:30N 51°21' E 004°16'0 0.0
2018-Feb-19 07:58N 51°21' E 004°16'0 0.0
2018-Feb-19 07:30N 51°21' E 004°16'0 0.0
2018-Feb-19 07:00N 51°21' E 004°16'0 0.0
2018-Feb-19 06:30N 51°21' E 004°16'0 0.0
2018-Feb-19 06:01N 51°21' E 004°16'0 0.0
2018-Feb-19 05:28N 51°21' E 004°16'0 0.0
2018-Feb-19 04:59N 51°21' E 004°16'0 0.0
2018-Feb-19 04:30N 51°21' E 004°16'0 0.0
2018-Feb-19 04:00N 51°21' E 004°16'0 0.0
2018-Feb-19 03:30N 51°21' E 004°16'0 0.0
2018-Feb-19 03:01N 51°21' E 004°16'0 0.0
2018-Feb-19 02:28N 51°21' E 004°16'0 0.0
2018-Feb-19 02:01N 51°21' E 004°16'0 0.0
2018-Feb-19 01:29N 51°21' E 004°16'0 0.0
2018-Feb-19 00:58N 51°21' E 004°16'0 0.0
2018-Feb-19 00:28N 51°21' E 004°16'0 0.0
2018-Feb-18 23:56N 51°21' E 004°16'0 0.0
2018-Feb-18 23:26N 51°21' E 004°16'0 0.0
2018-Feb-18 23:01N 51°21' E 004°16'0 0.0
2018-Feb-18 22:30N 51°21' E 004°16'0 0.0
2018-Feb-18 22:01N 51°21' E 004°16'0 0.0
2018-Feb-18 21:29N 51°21' E 004°16'0 0.0
2018-Feb-18 20:59N 51°21' E 004°16'1 1.2
2018-Feb-18 20:31N 51°21' E 004°16'0 0.2
2018-Feb-18 20:01N 51°21' E 004°16'3 6.9
2018-Feb-18 19:31N 51°24' E 004°12'611.6
2018-Feb-18 19:00N 51°23' E 004°03'4 8.1
2018-Feb-18 18:31N 51°25' E 003°58'611.9
2018-Feb-18 18:00N 51°21' E 003°51'612.6
2018-Feb-18 17:30N 51°24' E 003°42'510.8
2018-Feb-18 17:00N 51°26' E 003°34'611.0
2018-Feb-18 16:30N 51°25' E 003°25'816.5
2018-Feb-18 16:00N 51°24' E 003°12'815.8
2018-Feb-18 15:31N 51°25' E 002°60'714.6
2018-Feb-18 15:00N 51°32' E 003°06'814.9
2018-Feb-18 14:30N 51°38' E 003°11'612.3
2018-Feb-18 14:00N 51°44' E 003°15'610.5
2018-Feb-18 13:28N 51°49' E 003°16'1317.9
2018-Feb-18 12:43N 52°03' E 003°20'520.3
2018-Feb-18 12:28N 52°08' E 003°22'1020.4
2018-Feb-18 12:00N 52°17' E 003°25'1020.5
2018-Feb-18 11:30N 52°27' E 003°27'1920.0
2018-Feb-18 10:33N 52°44' E 003°41'220.6
2018-Feb-18 10:26N 52°46' E 003°44'920.6
2018-Feb-18 10:00N 52°53' E 003°54'1020.1
2018-Feb-18 09:30N 52°60' E 004°05'1019.6
2018-Feb-18 09:00N 53°06' E 004°17'3265.8
2018-Feb-18 09:00N 53°06' E 004°12'1224.4 180 / 141023.8 5.4 5.0 2.5 5.0
2018-Feb-18 08:30N 53°14' E 004°27'1218.6
2018-Feb-18 07:51N 53°25' E 004°35'1317.2
2018-Feb-18 07:06N 53°32' E 004°53'218.1
2018-Feb-18 06:59N 53°33' E 004°56'918.0
2018-Feb-18 06:30N 53°36' E 005°10'918.5
2018-Feb-18 05:59N 53°40' E 005°24'4220.0
2018-Feb-18 03:55N 53°52' E 006°32'5317.3
2018-Feb-18 00:51N 53°51' E 008°02'515.2
2018-Feb-18 00:30N 53°48' E 008°08'714.6
2018-Feb-18 00:00N 53°43' E 008°18'713.9
2018-Feb-17 23:30N 53°38' E 008°26'4 8.1
2018-Feb-17 23:01N 53°35' E 008°31'0 0.5
2018-Feb-17 22:29N 53°36' E 008°31'0 0.0
2018-Feb-17 21:59N 53°36' E 008°31'0 0.0
2018-Feb-17 21:29N 53°36' E 008°31'0 0.0
2018-Feb-17 20:59N 53°36' E 008°31'0 0.0
2018-Feb-17 20:29N 53°36' E 008°31'0 0.0
2018-Feb-17 19:59N 53°36' E 008°31'0 0.0
2018-Feb-17 19:29N 53°36' E 008°31'0 0.0
2018-Feb-17 18:59N 53°36' E 008°31'0 0.0
2018-Feb-17 18:29N 53°36' E 008°31'0 0.0
2018-Feb-17 17:59N 53°36' E 008°31'0 0.0
2018-Feb-17 17:29N 53°36' E 008°31'0 0.0
2018-Feb-17 16:59N 53°36' E 008°31'0 0.0
2018-Feb-17 16:29N 53°36' E 008°31'0 0.0
2018-Feb-17 15:59N 53°36' E 008°31'0 0.0
2018-Feb-17 15:29N 53°36' E 008°31'0 0.0
2018-Feb-17 14:59N 53°36' E 008°31'0 0.0
2018-Feb-17 14:29N 53°36' E 008°31'0 0.0
2018-Feb-17 13:59N 53°36' E 008°31'0 0.0
2018-Feb-17 13:29N 53°36' E 008°31'0 0.0
2018-Feb-17 12:59N 53°36' E 008°31'0 0.0
2018-Feb-17 12:29N 53°36' E 008°31'0 0.0
2018-Feb-17 11:59N 53°36' E 008°31'0 0.0
2018-Feb-17 11:29N 53°36' E 008°31'0 0.0
2018-Feb-17 10:59N 53°36' E 008°31'0 0.0
2018-Feb-17 10:29N 53°36' E 008°31'0 0.0
2018-Feb-17 09:59N 53°36' E 008°31'0 0.0
2018-Feb-17 09:29N 53°36' E 008°31'0 0.0
2018-Feb-17 08:59N 53°36' E 008°31'0 0.0
2018-Feb-17 08:29N 53°36' E 008°31'0 0.0
2018-Feb-17 07:59N 53°36' E 008°31'0 0.0
2018-Feb-17 07:29N 53°36' E 008°31'0 0.0
2018-Feb-17 06:59N 53°36' E 008°31'0 0.0
2018-Feb-17 06:29N 53°36' E 008°31'0 0.0
2018-Feb-17 05:59N 53°36' E 008°31'0 0.0
2018-Feb-17 05:29N 53°36' E 008°31'0 0.0
2018-Feb-17 04:56N 53°36' E 008°31'0 0.0
2018-Feb-17 04:29N 53°36' E 008°31'0 0.0
2018-Feb-17 03:59N 53°36' E 008°31'0 0.1
2018-Feb-17 03:30N 53°36' E 008°31'2 4.6
2018-Feb-17 03:00N 53°37' E 008°28'612.3
2018-Feb-17 02:30N 53°41' E 008°21'713.1
2018-Feb-17 02:00N 53°45' E 008°12'713.5
2018-Feb-17 01:30N 53°50' E 008°04'10010.0
2018-Feb-16 15:26N 53°33' E 005°17'912.7
2018-Feb-16 14:45N 53°30' E 005°03'1612.4
2018-Feb-16 13:25N 53°21' E 004°40'512.5
2018-Feb-16 13:00N 53°16' E 004°36'612.4
2018-Feb-16 12:30N 53°11' E 004°31'612.3
2018-Feb-16 12:00N 53°06' E 004°26'712.2
2018-Feb-16 11:28N 52°60' E 004°21'612.3
2018-Feb-16 11:00N 52°55' E 004°17'612.0
2018-Feb-16 10:30N 52°49' E 004°13'612.2
2018-Feb-16 10:00N 52°44' E 004°07'612.1
2018-Feb-16 09:30N 52°39' E 004°02'612.0
2018-Feb-16 09:00N 52°34' E 003°57'611.9
2018-Feb-16 08:30N 52°28' E 003°54'611.5
2018-Feb-16 08:00N 52°23' E 003°52'611.2
2018-Feb-16 07:30N 52°17' E 003°52'611.5
2018-Feb-16 07:00N 52°11' E 003°54'510.9
2018-Feb-16 06:30N 52°06' E 003°55'4 8.4
2018-Feb-16 06:00N 52°02' E 003°56'713.0
2018-Feb-16 05:30N 51°59' E 004°06'611.1
2018-Feb-16 05:00N 51°56' E 004°13'4 8.6
2018-Feb-16 04:30N 51°54' E 004°19'3 6.9
2018-Feb-16 04:00N 51°54' E 004°25'1 1.9
2018-Feb-16 03:30N 51°54' E 004°26'0 0.0
2018-Feb-16 02:58N 51°54' E 004°26'0 0.0
2018-Feb-16 02:28N 51°54' E 004°26'0 0.0
2018-Feb-16 01:58N 51°54' E 004°26'0 0.0
2018-Feb-16 01:28N 51°54' E 004°26'0 0.0
2018-Feb-16 00:58N 51°54' E 004°26'0 0.0
2018-Feb-16 00:28N 51°54' E 004°26'0 0.0
2018-Feb-15 23:58N 51°54' E 004°26'0 0.0
2018-Feb-15 23:28N 51°54' E 004°26'0 0.0
2018-Feb-15 22:58N 51°54' E 004°26'0 0.0
2018-Feb-15 22:28N 51°54' E 004°26'0 0.0
2018-Feb-15 21:58N 51°54' E 004°26'0 0.0
2018-Feb-15 21:28N 51°54' E 004°26'0 0.0
2018-Feb-15 20:58N 51°54' E 004°26'0 0.0
2018-Feb-15 20:28N 51°54' E 004°26'0 0.0
2018-Feb-15 19:58N 51°54' E 004°26'0 0.0
2018-Feb-15 19:28N 51°54' E 004°26'0 0.0
2018-Feb-15 18:58N 51°54' E 004°26'0 0.0
2018-Feb-15 18:28N 51°54' E 004°26'0 0.0
2018-Feb-15 17:58N 51°54' E 004°26'0 0.0
2018-Feb-15 17:28N 51°54' E 004°26'0 0.0
2018-Feb-15 16:58N 51°54' E 004°26'0 0.0
2018-Feb-15 16:28N 51°54' E 004°26'0 0.0
2018-Feb-15 15:58N 51°54' E 004°26'0 0.0
2018-Feb-15 15:28N 51°54' E 004°26'0 0.0
2018-Feb-15 14:58N 51°54' E 004°26'0 0.0
2018-Feb-15 14:28N 51°54' E 004°26'0 0.0
2018-Feb-15 13:58N 51°54' E 004°26'0 0.0
2018-Feb-15 13:28N 51°54' E 004°26'0 0.0
2018-Feb-15 12:58N 51°54' E 004°26'0 0.0
2018-Feb-15 12:28N 51°54' E 004°26'0 0.0
2018-Feb-15 11:58N 51°54' E 004°26'0 0.0
2018-Feb-15 11:28N 51°54' E 004°26'0 0.0
2018-Feb-15 10:58N 51°54' E 004°26'0 0.0
2018-Feb-15 10:28N 51°54' E 004°26'0 0.0
2018-Feb-15 09:58N 51°54' E 004°26'0 0.0
2018-Feb-15 09:28N 51°54' E 004°26'0 0.0
2018-Feb-15 08:58N 51°54' E 004°26'0 0.0
2018-Feb-15 08:28N 51°54' E 004°26'0 0.0
2018-Feb-15 07:58N 51°54' E 004°26'0 0.0
2018-Feb-15 07:28N 51°54' E 004°26'0 0.0
2018-Feb-15 06:58N 51°54' E 004°26'0 0.0
2018-Feb-15 06:28N 51°54' E 004°26'0 0.0
2018-Feb-15 05:58N 51°54' E 004°26'0 0.0
2018-Feb-15 05:28N 51°54' E 004°26'0 0.0
2018-Feb-15 04:58N 51°54' E 004°26'0 0.0
2018-Feb-15 04:28N 51°54' E 004°26'0 0.0
2018-Feb-15 03:58N 51°54' E 004°26'0 0.0
2018-Feb-15 03:28N 51°54' E 004°26'0 0.0
2018-Feb-15 02:58N 51°54' E 004°26'0 0.0
2018-Feb-15 02:28N 51°54' E 004°26'0 0.0
2018-Feb-15 01:58N 51°54' E 004°26'0 0.0
2018-Feb-15 01:28N 51°54' E 004°26'0 0.4
2018-Feb-15 01:00N 51°54' E 004°26'1 2.7
2018-Feb-15 00:30N 51°54' E 004°24'4 7.0
2018-Feb-15 00:00N 51°54' E 004°18'4 8.5
2018-Feb-14 23:30N 51°56' E 004°13'4 8.3
2018-Feb-14 23:00N 51°58' E 004°07'4 8.5
2018-Feb-14 22:30N 51°60' E 004°01'612.5
2018-Feb-14 22:00N 51°60' E 003°50'2 3.5
2018-Feb-14 21:31N 51°59' E 003°48'2 4.3
2018-Feb-14 21:01N 51°59' E 003°45'510.0
2018-Feb-14 20:31N 51°58' E 003°37'5 9.5
2018-Feb-14 19:59N 51°57' E 003°29'10 9.4
2018-Feb-14 18:58N 51°54' E 003°14'5 9.1
2018-Feb-14 18:26N 51°55' E 003°06'2 4.6
2018-Feb-14 17:59N 51°55' E 003°03'  
Track history (hours):
 
Tides and Currents Weather Stations Pressure Air Temp Water Temp Dewpoint Dewpoint Depression Visibility Wind Speed Wind Dir Waves Ship Positions

Seago Piraeus

Last reported at 2018-Feb-24 17:00 UTC. Time now 2018-Feb-24 18:14 UTC.
Position N 37°18' E 012°24'.

Length 294 m; draft 14 m.

Type: Ship (hazmat cat A). MMSI: 219117000.

Wind from 160 at 12 knots

Barometer 1007.6 mb
Air temperature 13.5 ° C
Visibility: greater than 5.4 NM
Dewpoint 6.7 ° C
Water temperature 14.0 ° C

Date/timePositionNaut miles runAvg speedWind from/ knotsBaromVisibWave heightAir tempDewpointWater temp
2018-Feb-24 17:00N 37°18' E 012°24'23419.5 160 / 121007.6 5.4 13.5 6.714.0
2018-Feb-24 05:00N 37°30' E 007°30'23219.4 300 / 101007.0 5.4 12.2 9.714.0
2018-Feb-23 17:00N 36°54' E 002°42'7819.5 050 / 111006.010.8 14.5 5.715.0
2018-Feb-23 13:00N 36°42' E 001°06'6817.1 070 / 101006.010.8 12.5 8.514.0
2018-Feb-23 09:00N 36°30' W 000°18'7318.4 090 / 111006.027.0 13.512.614.0
2018-Feb-23 05:00N 36°18' W 001°48'16118.9 050 / 211003.810.8 14.211.015.0
2018-Feb-22 20:27N 36°01' W 005°07'921.4
2018-Feb-22 20:00N 35°60' W 005°18'1020.5
2018-Feb-22 19:30N 35°57' W 005°30'4819.3
2018-Feb-22 17:00N 35°54' W 006°30'7719.1 070 / 111007.510.8 17.5 8.115.0
2018-Feb-22 13:00N 36°18' W 008°00'12015.0 100 / 121008.727.0 17.0 8.215.0
2018-Feb-22 05:00N 37°42' W 009°48'6846.8 050 / 151008.510.8 13.5 3.514.0
2018-Feb-22 04:59N 37°47' W 009°52'918.4
2018-Feb-22 04:29N 37°56' W 009°55'918.6
2018-Feb-22 04:00N 38°05' W 009°57'3418.5
2018-Feb-22 02:12N 38°38' W 010°04'318.3
2018-Feb-22 02:01N 38°41' W 010°05'918.3
2018-Feb-22 01:30N 38°50' W 010°06'918.6
2018-Feb-22 01:00N 38°60' W 010°06'919.0
2018-Feb-22 00:30N 39°09' W 010°06'918.6
2018-Feb-22 00:00N 39°18' W 010°06'918.3
2018-Feb-21 23:30N 39°27' W 010°06'1018.3
2018-Feb-21 22:59N 39°37' W 010°07'918.4
2018-Feb-21 22:30N 39°46' W 010°07'918.3
2018-Feb-21 22:00N 39°55' W 010°07'918.5
2018-Feb-21 21:31N 40°04' W 010°06'917.8
2018-Feb-21 21:00N 40°12' W 010°00'5332.6 030 / 121011.110.8 13.5 8.512.0
2018-Feb-21 20:59N 40°14' W 010°06'2718.4
2018-Feb-21 19:31N 40°41' W 010°07'018.9
2018-Feb-21 19:30N 40°41' W 010°07'4317.2
2018-Feb-21 17:00N 41°24' W 010°06'7218.0 030 / 251012.0 5.4 13.1 6.212.0
2018-Feb-21 13:00N 42°36' W 010°06'7418.5 050 / 301016.210.8 11.5 7.413.0
2018-Feb-21 09:00N 43°48' W 009°42'7418.6 050 / 221020.510.8 12.0 2.912.0
2018-Feb-21 05:00N 44°54' W 008°54'15018.7 020 / 201023.2 5.4 10.2 4.112.0
2018-Feb-20 21:00N 47°06' W 007°12'7518.8 020 / 201027.110.8 10.0 5.611.0
2018-Feb-20 17:00N 48°12' W 006°18'4318.3 020 / 191026.4 5.4 10.0 4.410.0
2018-Feb-20 14:37N 48°50' W 005°47'4519.7
2018-Feb-20 12:19N 49°15' W 004°49'1419.8
2018-Feb-20 11:37N 49°22' W 004°30'3818.4
2018-Feb-20 09:34N 49°40' W 003°40'117.5
2018-Feb-20 09:30N 49°40' W 003°38'917.3
2018-Feb-20 08:59N 49°45' W 003°26'817.1
2018-Feb-20 08:30N 49°49' W 003°16'917.3
2018-Feb-20 08:01N 49°54' W 003°04'917.6
2018-Feb-20 07:30N 49°58' W 002°52'918.0
2018-Feb-20 07:00N 50°01' W 002°39'1019.1
2018-Feb-20 06:30N 50°03' W 002°24'1520.4
2018-Feb-20 05:45N 50°08' W 002°01'521.6
2018-Feb-20 05:30N 50°09' W 001°53'1121.8
2018-Feb-20 05:01N 50°12' W 001°37'5274.2
2018-Feb-20 05:00N 50°12' W 001°30'714.0 330 / 251018.7 5.4 10.0 6.8 9.0
2018-Feb-20 04:30N 50°16' W 001°21'1121.8
2018-Feb-20 04:00N 50°19' W 001°05'1121.2
2018-Feb-20 03:29N 50°22' W 000°48'1420.3
2018-Feb-20 02:49N 50°26' W 000°27'619.7
2018-Feb-20 02:30N 50°27' W 000°18'1019.1
2018-Feb-20 02:01N 50°30' W 000°04'918.5
2018-Feb-20 01:30N 50°32' E 000°10'918.0
2018-Feb-20 01:00N 50°35' E 000°24'917.5
2018-Feb-20 00:31N 50°38' E 000°36'917.6
2018-Feb-20 00:00N 50°44' E 000°47'917.9
2018-Feb-19 23:30N 50°49' E 000°59'918.9
2018-Feb-19 23:00N 50°55' E 001°11'1020.2
2018-Feb-19 22:31N 51°02' E 001°22'1122.0
2018-Feb-19 22:01N 51°08' E 001°36'1121.6
2018-Feb-19 21:31N 51°16' E 001°48'1019.2
2018-Feb-19 21:00N 51°24' E 001°58'816.9
2018-Feb-19 20:30N 51°21' E 002°11'917.9
2018-Feb-19 20:00N 51°22' E 002°26'917.3
2018-Feb-19 19:29N 51°23' E 002°40'612.9
2018-Feb-19 18:59N 51°25' E 002°50'816.6
2018-Feb-19 18:30N 51°25' E 003°02'816.9
2018-Feb-19 18:00N 51°25' E 003°16'816.9
2018-Feb-19 17:30N 51°25' E 003°29'612.7
2018-Feb-19 17:00N 51°26' E 003°39'714.0
2018-Feb-19 16:30N 51°21' E 003°47'612.9
2018-Feb-19 16:00N 51°23' E 003°57'4 7.2
2018-Feb-19 15:30N 51°25' E 004°02'5 9.8
2018-Feb-19 15:01N 51°23' E 004°09'4 8.2
2018-Feb-19 14:31N 51°21' E 004°15'1 1.6
2018-Feb-19 13:55N 51°21' E 004°16'0 0.0
2018-Feb-19 13:31N 51°21' E 004°16'0 0.0
2018-Feb-19 12:59N 51°21' E 004°16'0 0.0
2018-Feb-19 12:31N 51°21' E 004°16'0 0.0
2018-Feb-19 12:01N 51°21' E 004°16'0 0.0
2018-Feb-19 11:31N 51°21' E 004°16'0 0.0
2018-Feb-19 11:01N 51°21' E 004°16'0 0.0
2018-Feb-19 10:31N 51°21' E 004°16'0 0.0
2018-Feb-19 10:01N 51°21' E 004°16'0 0.0
2018-Feb-19 09:28N 51°21' E 004°16'0 0.0
2018-Feb-19 08:55N 51°21' E 004°16'0 0.0
2018-Feb-19 08:30N 51°21' E 004°16'0 0.0
2018-Feb-19 07:58N 51°21' E 004°16'0 0.0
2018-Feb-19 07:30N 51°21' E 004°16'0 0.0
2018-Feb-19 07:00N 51°21' E 004°16'0 0.0
2018-Feb-19 06:30N 51°21' E 004°16'0 0.0
2018-Feb-19 06:01N 51°21' E 004°16'0 0.0
2018-Feb-19 05:28N 51°21' E 004°16'0 0.0
2018-Feb-19 04:59N 51°21' E 004°16'0 0.0
2018-Feb-19 04:30N 51°21' E 004°16'0 0.0
2018-Feb-19 04:00N 51°21' E 004°16'0 0.0
2018-Feb-19 03:30N 51°21' E 004°16'0 0.0
2018-Feb-19 03:01N 51°21' E 004°16'0 0.0
2018-Feb-19 02:28N 51°21' E 004°16'0 0.0
2018-Feb-19 02:01N 51°21' E 004°16'0 0.0
2018-Feb-19 01:29N 51°21' E 004°16'0 0.0
2018-Feb-19 00:58N 51°21' E 004°16'0 0.0
2018-Feb-19 00:28N 51°21' E 004°16'0 0.0
2018-Feb-18 23:56N 51°21' E 004°16'0 0.0
2018-Feb-18 23:26N 51°21' E 004°16'0 0.0
2018-Feb-18 23:01N 51°21' E 004°16'0 0.0
2018-Feb-18 22:30N 51°21' E 004°16'0 0.0
2018-Feb-18 22:01N 51°21' E 004°16'0 0.0
2018-Feb-18 21:29N 51°21' E 004°16'0 0.0
2018-Feb-18 20:59N 51°21' E 004°16'1 1.2
2018-Feb-18 20:31N 51°21' E 004°16'0 0.2
2018-Feb-18 20:01N 51°21' E 004°16'3 6.9
2018-Feb-18 19:31N 51°24' E 004°12'611.6
2018-Feb-18 19:00N 51°23' E 004°03'4 8.1
2018-Feb-18 18:31N 51°25' E 003°58'611.9
2018-Feb-18 18:00N 51°21' E 003°51'612.6
2018-Feb-18 17:30N 51°24' E 003°42'510.8
2018-Feb-18 17:00N 51°26' E 003°34'611.0
2018-Feb-18 16:30N 51°25' E 003°25'816.5
2018-Feb-18 16:00N 51°24' E 003°12'815.8
2018-Feb-18 15:31N 51°25' E 002°60'714.6
2018-Feb-18 15:00N 51°32' E 003°06'814.9
2018-Feb-18 14:30N 51°38' E 003°11'612.3
2018-Feb-18 14:00N 51°44' E 003°15'610.5
2018-Feb-18 13:28N 51°49' E 003°16'1317.9
2018-Feb-18 12:43N 52°03' E 003°20'520.3
2018-Feb-18 12:28N 52°08' E 003°22'1020.4
2018-Feb-18 12:00N 52°17' E 003°25'1020.5
2018-Feb-18 11:30N 52°27' E 003°27'1920.0
2018-Feb-18 10:33N 52°44' E 003°41'220.6
2018-Feb-18 10:26N 52°46' E 003°44'920.6
2018-Feb-18 10:00N 52°53' E 003°54'1020.1
2018-Feb-18 09:30N 52°60' E 004°05'1019.6
2018-Feb-18 09:00N 53°06' E 004°17'3265.8
2018-Feb-18 09:00N 53°06' E 004°12'1224.4 180 / 141023.8 5.4 5.0 2.5 5.0
2018-Feb-18 08:30N 53°14' E 004°27'1218.6
2018-Feb-18 07:51N 53°25' E 004°35'1317.2
2018-Feb-18 07:06N 53°32' E 004°53'218.1
2018-Feb-18 06:59N 53°33' E 004°56'918.0
2018-Feb-18 06:30N 53°36' E 005°10'918.5
2018-Feb-18 05:59N 53°40' E 005°24'4220.0
2018-Feb-18 03:55N 53°52' E 006°32'5317.3
2018-Feb-18 00:51N 53°51' E 008°02'515.2
2018-Feb-18 00:30N 53°48' E 008°08'714.6
2018-Feb-18 00:00N 53°43' E 008°18'713.9
2018-Feb-17 23:30N 53°38' E 008°26'4 8.1
2018-Feb-17 23:01N 53°35' E 008°31'0 0.5
2018-Feb-17 22:29N 53°36' E 008°31'0 0.0
2018-Feb-17 21:59N 53°36' E 008°31'0 0.0
2018-Feb-17 21:29N 53°36' E 008°31'0 0.0
2018-Feb-17 20:59N 53°36' E 008°31'0 0.0
2018-Feb-17 20:29N 53°36' E 008°31'0 0.0
2018-Feb-17 19:59N 53°36' E 008°31'0 0.0
2018-Feb-17 19:29N 53°36' E 008°31'0 0.0
2018-Feb-17 18:59N 53°36' E 008°31'0 0.0
2018-Feb-17 18:29N 53°36' E 008°31'0 0.0
2018-Feb-17 17:59N 53°36' E 008°31'0 0.0
2018-Feb-17 17:29N 53°36' E 008°31'0 0.0
2018-Feb-17 16:59N 53°36' E 008°31'0 0.0
2018-Feb-17 16:29N 53°36' E 008°31'0 0.0
2018-Feb-17 15:59N 53°36' E 008°31'0 0.0
2018-Feb-17 15:29N 53°36' E 008°31'0 0.0
2018-Feb-17 14:59N 53°36' E 008°31'0 0.0
2018-Feb-17 14:29N 53°36' E 008°31'0 0.0
2018-Feb-17 13:59N 53°36' E 008°31'0 0.0
2018-Feb-17 13:29N 53°36' E 008°31'0 0.0
2018-Feb-17 12:59N 53°36' E 008°31'0 0.0
2018-Feb-17 12:29N 53°36' E 008°31'0 0.0
2018-Feb-17 11:59N 53°36' E 008°31'0 0.0
2018-Feb-17 11:29N 53°36' E 008°31'0 0.0
2018-Feb-17 10:59N 53°36' E 008°31'0 0.0
2018-Feb-17 10:29N 53°36' E 008°31'0 0.0
2018-Feb-17 09:59N 53°36' E 008°31'0 0.0
2018-Feb-17 09:29N 53°36' E 008°31'0 0.0
2018-Feb-17 08:59N 53°36' E 008°31'0 0.0
2018-Feb-17 08:29N 53°36' E 008°31'0 0.0
2018-Feb-17 07:59N 53°36' E 008°31'0 0.0
2018-Feb-17 07:29N 53°36' E 008°31'0 0.0
2018-Feb-17 06:59N 53°36' E 008°31'0 0.0
2018-Feb-17 06:29N 53°36' E 008°31'0 0.0
2018-Feb-17 05:59N 53°36' E 008°31'0 0.0
2018-Feb-17 05:29N 53°36' E 008°31'0 0.0
2018-Feb-17 04:56N 53°36' E 008°31'0 0.0
2018-Feb-17 04:29N 53°36' E 008°31'0 0.0
2018-Feb-17 03:59N 53°36' E 008°31'0 0.1
2018-Feb-17 03:30N 53°36' E 008°31'2 4.6
2018-Feb-17 03:00N 53°37' E 008°28'612.3
2018-Feb-17 02:30N 53°41' E 008°21'713.1
2018-Feb-17 02:00N 53°45' E 008°12'713.5
2018-Feb-17 01:30N 53°50' E 008°04'10010.0
2018-Feb-16 15:26N 53°33' E 005°17'912.7
2018-Feb-16 14:45N 53°30' E 005°03'1612.4
2018-Feb-16 13:25N 53°21' E 004°40'512.5
2018-Feb-16 13:00N 53°16' E 004°36'612.4
2018-Feb-16 12:30N 53°11' E 004°31'612.3
2018-Feb-16 12:00N 53°06' E 004°26'712.2
2018-Feb-16 11:28N 52°60' E 004°21'612.3
2018-Feb-16 11:00N 52°55' E 004°17'612.0
2018-Feb-16 10:30N 52°49' E 004°13'612.2
2018-Feb-16 10:00N 52°44' E 004°07'612.1
2018-Feb-16 09:30N 52°39' E 004°02'612.0
2018-Feb-16 09:00N 52°34' E 003°57'611.9
2018-Feb-16 08:30N 52°28' E 003°54'611.5
2018-Feb-16 08:00N 52°23' E 003°52'611.2
2018-Feb-16 07:30N 52°17' E 003°52'611.5
2018-Feb-16 07:00N 52°11' E 003°54'510.9
2018-Feb-16 06:30N 52°06' E 003°55'4 8.4
2018-Feb-16 06:00N 52°02' E 003°56'713.0
2018-Feb-16 05:30N 51°59' E 004°06'611.1
2018-Feb-16 05:00N 51°56' E 004°13'4 8.6
2018-Feb-16 04:30N 51°54' E 004°19'3 6.9
2018-Feb-16 04:00N 51°54' E 004°25'1 1.9
2018-Feb-16 03:30N 51°54' E 004°26'0 0.0
2018-Feb-16 02:58N 51°54' E 004°26'0 0.0
2018-Feb-16 02:28N 51°54' E 004°26'0 0.0
2018-Feb-16 01:58N 51°54' E 004°26'0 0.0
2018-Feb-16 01:28N 51°54' E 004°26'0 0.0
2018-Feb-16 00:58N 51°54' E 004°26'0 0.0
2018-Feb-16 00:28N 51°54' E 004°26'0 0.0
2018-Feb-15 23:58N 51°54' E 004°26'0 0.0
2018-Feb-15 23:28N 51°54' E 004°26'0 0.0
2018-Feb-15 22:58N 51°54' E 004°26'0 0.0
2018-Feb-15 22:28N 51°54' E 004°26'0 0.0
2018-Feb-15 21:58N 51°54' E 004°26'0 0.0
2018-Feb-15 21:28N 51°54' E 004°26'0 0.0
2018-Feb-15 20:58N 51°54' E 004°26'0 0.0
2018-Feb-15 20:28N 51°54' E 004°26'0 0.0
2018-Feb-15 19:58N 51°54' E 004°26'0 0.0
2018-Feb-15 19:28N 51°54' E 004°26'0 0.0
2018-Feb-15 18:58N 51°54' E 004°26'0 0.0
2018-Feb-15 18:28N 51°54' E 004°26'0 0.0
2018-Feb-15 17:58N 51°54' E 004°26'0 0.0
2018-Feb-15 17:28N 51°54' E 004°26'0 0.0
2018-Feb-15 16:58N 51°54' E 004°26'0 0.0
2018-Feb-15 16:28N 51°54' E 004°26'0 0.0
2018-Feb-15 15:58N 51°54' E 004°26'0 0.0
2018-Feb-15 15:28N 51°54' E 004°26'0 0.0
2018-Feb-15 14:58N 51°54' E 004°26'0 0.0
2018-Feb-15 14:28N 51°54' E 004°26'0 0.0
2018-Feb-15 13:58N 51°54' E 004°26'0 0.0
2018-Feb-15 13:28N 51°54' E 004°26'0 0.0
2018-Feb-15 12:58N 51°54' E 004°26'0 0.0
2018-Feb-15 12:28N 51°54' E 004°26'0 0.0
2018-Feb-15 11:58N 51°54' E 004°26'0 0.0
2018-Feb-15 11:28N 51°54' E 004°26'0 0.0
2018-Feb-15 10:58N 51°54' E 004°26'0 0.0
2018-Feb-15 10:28N 51°54' E 004°26'0 0.0
2018-Feb-15 09:58N 51°54' E 004°26'0 0.0
2018-Feb-15 09:28N 51°54' E 004°26'0 0.0
2018-Feb-15 08:58N 51°54' E 004°26'0 0.0
2018-Feb-15 08:28N 51°54' E 004°26'0 0.0
2018-Feb-15 07:58N 51°54' E 004°26'0 0.0
2018-Feb-15 07:28N 51°54' E 004°26'0 0.0
2018-Feb-15 06:58N 51°54' E 004°26'0 0.0
2018-Feb-15 06:28N 51°54' E 004°26'0 0.0
2018-Feb-15 05:58N 51°54' E 004°26'0 0.0
2018-Feb-15 05:28N 51°54' E 004°26'0 0.0
2018-Feb-15 04:58N 51°54' E 004°26'0 0.0
2018-Feb-15 04:28N 51°54' E 004°26'0 0.0
2018-Feb-15 03:58N 51°54' E 004°26'0 0.0
2018-Feb-15 03:28N 51°54' E 004°26'0 0.0
2018-Feb-15 02:58N 51°54' E 004°26'0 0.0
2018-Feb-15 02:28N 51°54' E 004°26'0 0.0
2018-Feb-15 01:58N 51°54' E 004°26'0 0.0
2018-Feb-15 01:28N 51°54' E 004°26'0 0.4
2018-Feb-15 01:00N 51°54' E 004°26'1 2.7
2018-Feb-15 00:30N 51°54' E 004°24'4 7.0
2018-Feb-15 00:00N 51°54' E 004°18'4 8.5
2018-Feb-14 23:30N 51°56' E 004°13'4 8.3
2018-Feb-14 23:00N 51°58' E 004°07'4 8.5
2018-Feb-14 22:30N 51°60' E 004°01'612.5
2018-Feb-14 22:00N 51°60' E 003°50'2 3.5
2018-Feb-14 21:31N 51°59' E 003°48'2 4.3
2018-Feb-14 21:01N 51°59' E 003°45'510.0
2018-Feb-14 20:31N 51°58' E 003°37'5 9.5
2018-Feb-14 19:59N 51°57' E 003°29'10 9.4
2018-Feb-14 18:58N 51°54' E 003°14'5 9.1
2018-Feb-14 18:26N 51°55' E 003°06'2 4.6
2018-Feb-14 17:59N 51°55' E 003°03'  

Dump ship's entire track history